createdAt,value
2022-10-10T00:00:49.229Z,98887.38
2022-10-10T00:03:16.339Z,98885.75
2022-10-10T00:05:42.874Z,98894.94
2022-10-10T00:08:09.608Z,98878.56
2022-10-10T00:10:37.554Z,98882.44
2022-10-10T00:13:06.407Z,98871.19
2022-10-10T00:15:32.915Z,98880.03
2022-10-10T00:17:59.549Z,98877.00
2022-10-10T00:20:25.941Z,98879.09
2022-10-10T00:22:52.725Z,98880.28
2022-10-10T00:25:19.452Z,98877.38
2022-10-10T00:27:45.937Z,98872.88
2022-10-10T00:30:12.491Z,98876.16
2022-10-10T00:32:39.367Z,98870.66
2022-10-10T00:35:06.523Z,98868.81
2022-10-10T00:37:32.886Z,98862.66
2022-10-10T00:40:01.030Z,98868.28
2022-10-10T00:42:27.477Z,98862.31
2022-10-10T00:45:21.827Z,98862.88
2022-10-10T00:47:51.973Z,98855.88
2022-10-10T00:50:21.045Z,98857.34
2022-10-10T00:52:47.844Z,98856.97
2022-10-10T00:55:15.525Z,98864.41
2022-10-10T00:57:42.218Z,98862.22
2022-10-10T01:00:10.642Z,98851.34
2022-10-10T01:02:37.490Z,98863.69
2022-10-10T01:05:06.840Z,98860.63
2022-10-10T01:07:33.692Z,98854.91
2022-10-10T01:10:07.096Z,98855.19
2022-10-10T01:12:55.380Z,98849.19
2022-10-10T01:15:27.813Z,98838.81
2022-10-10T01:18:22.890Z,98843.41
2022-10-10T01:21:15.264Z,98838.13
2022-10-10T01:23:56.714Z,98830.56
2022-10-10T01:27:07.276Z,98832.44
2022-10-10T01:29:42.709Z,98837.38
2022-10-10T01:32:19.931Z,98832.88
2022-10-10T01:35:07.642Z,98828.94
2022-10-10T01:37:52.683Z,98830.34
2022-10-10T01:40:27.350Z,98827.84
2022-10-10T01:43:03.368Z,98826.38
2022-10-10T01:45:30.541Z,98825.13
2022-10-10T01:48:02.016Z,98820.38
2022-10-10T01:50:33.299Z,98813.34
2022-10-10T01:53:17.273Z,98816.22
2022-10-10T01:55:52.481Z,98817.59
2022-10-10T01:58:36.280Z,98824.69
2022-10-10T02:01:13.893Z,98822.47
2022-10-10T02:03:47.854Z,98820.91
2022-10-10T02:06:30.001Z,98819.50
2022-10-10T02:09:02.275Z,98820.81
2022-10-10T02:11:36.257Z,98819.50
2022-10-10T02:14:16.354Z,98820.91
2022-10-10T02:16:47.399Z,98827.25
2022-10-10T02:19:18.824Z,98821.13
2022-10-10T02:21:50.462Z,98808.41
2022-10-10T02:24:18.234Z,98820.97
2022-10-10T02:26:52.371Z,98816.28
2022-10-10T02:29:23.713Z,98815.28
2022-10-10T02:32:23.635Z,98812.97
2022-10-10T02:34:55.552Z,98810.53
2022-10-10T02:37:23.177Z,98815.94
2022-10-10T02:39:55.214Z,98815.31
2022-10-10T02:42:23.899Z,98823.88
2022-10-10T02:44:51.339Z,98816.09
2022-10-10T02:47:21.615Z,98814.03
2022-10-10T02:49:48.349Z,98824.69
2022-10-10T02:52:17.387Z,98818.53
2022-10-10T02:54:44.261Z,98828.09
2022-10-10T02:57:11.767Z,98824.72
2022-10-10T02:59:38.211Z,98825.56
2022-10-10T03:02:04.833Z,98822.44
2022-10-10T03:04:31.295Z,98821.16
2022-10-10T03:06:57.880Z,98824.41
2022-10-10T03:09:25.696Z,98823.09
2022-10-10T03:11:53.355Z,98824.09
2022-10-10T03:14:20.044Z,98819.16
2022-10-10T03:16:46.600Z,98824.69
2022-10-10T03:19:13.069Z,98825.06
2022-10-10T03:21:39.450Z,98832.03
2022-10-10T03:24:05.916Z,98830.38
2022-10-10T03:26:33.836Z,98833.88
2022-10-10T03:29:02.067Z,98823.72
2022-10-10T03:31:28.954Z,98827.72
2022-10-10T03:33:55.461Z,98825.94
2022-10-10T03:36:23.732Z,98829.06
2022-10-10T03:38:50.921Z,98830.72
2022-10-10T03:41:17.443Z,98831.00
2022-10-10T03:43:45.414Z,98834.31
2022-10-10T03:46:15.948Z,98823.66
2022-10-10T03:48:45.062Z,98833.00
2022-10-10T03:51:14.897Z,98824.75
2022-10-10T03:53:41.538Z,98816.94
2022-10-10T03:56:08.260Z,98821.44
2022-10-10T03:58:34.744Z,98820.63
2022-10-10T04:01:03.799Z,98826.78
2022-10-10T04:03:31.538Z,98816.13
2022-10-10T04:05:58.462Z,98821.28
2022-10-10T04:08:24.917Z,98824.19
2022-10-10T04:10:52.878Z,98819.69
2022-10-10T04:13:20.625Z,98817.03
2022-10-10T04:15:53.876Z,98818.88
2022-10-10T04:18:20.781Z,98816.84
2022-10-10T04:20:47.476Z,98821.34
2022-10-10T04:23:14.030Z,98824.03
2022-10-10T04:25:45.079Z,98815.53
2022-10-10T04:28:13.727Z,98822.09
2022-10-10T04:30:40.483Z,98821.44
2022-10-10T04:33:08.819Z,98818.13
2022-10-10T04:35:37.302Z,98820.19
2022-10-10T04:38:04.399Z,98816.69
2022-10-10T04:40:30.844Z,98812.34
2022-10-10T04:42:57.385Z,98820.34
2022-10-10T04:45:23.857Z,98823.81
2022-10-10T04:47:50.335Z,98821.00
2022-10-10T04:50:19.647Z,98821.00
2022-10-10T04:52:46.033Z,98818.69
2022-10-10T04:55:13.609Z,98828.53
2022-10-10T04:57:40.052Z,98828.91
2022-10-10T05:00:10.308Z,98826.56
2022-10-10T05:02:36.765Z,98829.25
2022-10-10T05:05:05.636Z,98819.41
2022-10-10T05:07:32.125Z,98822.91
2022-10-10T05:09:58.657Z,98828.91
2022-10-10T05:12:32.219Z,98832.53
2022-10-10T05:14:58.761Z,98824.72
2022-10-10T05:17:25.154Z,98819.78
2022-10-10T05:19:52.073Z,98821.25
2022-10-10T05:22:21.296Z,98817.13
2022-10-10T05:24:49.484Z,98827.94
2022-10-10T05:27:19.317Z,98830.78
2022-10-10T05:29:45.815Z,98833.16
2022-10-10T05:32:12.361Z,98831.69
2022-10-10T05:34:38.994Z,98839.50
2022-10-10T05:37:05.675Z,98832.19
2022-10-10T05:39:32.289Z,98830.13
2022-10-10T05:41:58.676Z,98837.13
2022-10-10T05:44:25.176Z,98834.94
2022-10-10T05:46:51.581Z,98841.91
2022-10-10T05:49:18.473Z,98844.06
2022-10-10T05:51:45.072Z,98846.16
2022-10-10T05:54:11.518Z,98838.44
2022-10-10T05:56:38.039Z,98849.34
2022-10-10T05:59:05.965Z,98848.16
2022-10-10T06:01:32.458Z,98852.31
2022-10-10T06:04:01.202Z,98853.94
2022-10-10T06:06:27.741Z,98851.13
2022-10-10T06:08:54.344Z,98859.72
2022-10-10T06:11:20.931Z,98851.72
2022-10-10T06:13:47.594Z,98855.06
2022-10-10T06:16:14.046Z,98853.41
2022-10-10T06:18:41.968Z,98861.47
2022-10-10T06:21:08.432Z,98863.56
2022-10-10T06:23:35.199Z,98856.97
2022-10-10T06:26:01.705Z,98861.25
2022-10-10T06:28:28.345Z,98858.66
2022-10-10T06:30:58.503Z,98866.50
2022-10-10T06:33:24.935Z,98860.66
2022-10-10T06:35:51.581Z,98871.88
2022-10-10T06:38:18.248Z,98868.91
2022-10-10T06:40:45.451Z,98862.16
2022-10-10T06:43:13.860Z,98861.97
2022-10-10T06:45:46.170Z,98870.22
2022-10-10T06:48:15.730Z,98870.75
2022-10-10T06:50:42.279Z,98882.81
2022-10-10T06:53:09.211Z,98871.75
2022-10-10T06:55:35.710Z,98882.16
2022-10-10T06:58:02.809Z,98875.75
2022-10-10T07:00:29.348Z,98871.72
2022-10-10T07:02:56.037Z,98875.13
2022-10-10T07:05:22.738Z,98885.09
2022-10-10T07:07:52.392Z,98873.19
2022-10-10T07:10:19.069Z,98874.59
2022-10-10T07:12:45.912Z,98885.88
2022-10-10T07:15:12.937Z,98890.13
2022-10-10T07:17:39.395Z,98890.94
2022-10-10T07:20:06.152Z,98890.22
2022-10-10T07:22:32.536Z,98902.50
2022-10-10T07:24:59.287Z,98898.38
2022-10-10T07:27:25.650Z,98885.78
2022-10-10T07:29:52.011Z,98889.72
2022-10-10T07:32:18.625Z,98888.13
2022-10-10T07:34:47.613Z,98892.06
2022-10-10T07:37:14.104Z,98892.06
2022-10-10T07:39:40.649Z,98893.53
2022-10-10T07:42:07.049Z,98895.03
2022-10-10T07:44:34.740Z,98900.50
2022-10-10T07:47:02.725Z,98897.66
2022-10-10T07:49:29.294Z,98892.78
2022-10-10T07:51:58.953Z,98889.41
2022-10-10T07:54:29.510Z,98888.41
2022-10-10T07:56:56.614Z,98897.50
2022-10-10T07:59:24.134Z,98896.44
2022-10-10T08:01:51.465Z,98896.91
2022-10-10T08:04:18.665Z,98898.97
2022-10-10T08:06:45.037Z,98902.28
2022-10-10T08:09:12.295Z,98892.78
2022-10-10T08:11:39.371Z,98899.59
2022-10-10T08:14:06.013Z,98900.81
2022-10-10T08:16:32.359Z,98893.50
2022-10-10T08:18:59.891Z,98892.63
2022-10-10T08:21:26.488Z,98896.81
2022-10-10T08:23:53.024Z,98894.94
2022-10-10T08:26:20.038Z,98902.16
2022-10-10T08:28:49.187Z,98899.25
2022-10-10T08:31:19.796Z,98900.44
2022-10-10T08:33:47.427Z,98904.50
2022-10-10T08:36:28.089Z,98909.56
2022-10-10T08:38:56.029Z,98900.22
2022-10-10T08:41:52.381Z,98898.88
2022-10-10T08:44:25.057Z,98887.09
2022-10-10T08:47:02.908Z,98895.34
2022-10-10T08:49:40.991Z,98890.81
2022-10-10T08:52:35.488Z,98886.00
2022-10-10T08:55:08.040Z,98886.41
2022-10-10T08:57:56.126Z,98889.16
2022-10-10T09:00:24.770Z,98882.78
2022-10-10T09:02:57.776Z,98888.97
2022-10-10T09:05:52.963Z,98886.88
2022-10-10T09:08:35.306Z,98875.34
2022-10-10T09:11:22.606Z,98886.22
2022-10-10T09:13:55.077Z,98878.22
2022-10-10T09:16:30.480Z,98877.00
2022-10-10T09:19:17.543Z,98873.53
2022-10-10T09:21:45.334Z,98879.34
2022-10-10T09:24:24.057Z,98873.50
2022-10-10T09:26:58.994Z,98885.25
2022-10-10T09:29:47.848Z,98888.00
2022-10-10T09:32:17.779Z,98885.63
2022-10-10T09:35:06.086Z,98904.47
2022-10-10T09:37:53.433Z,98901.47
2022-10-10T09:40:28.508Z,98904.72
2022-10-10T09:42:56.531Z,98898.31
2022-10-10T09:45:34.560Z,98907.16
2022-10-10T09:48:01.075Z,98901.56
2022-10-10T09:50:27.808Z,98897.13
2022-10-10T09:52:56.677Z,98906.41
2022-10-10T09:55:35.525Z,98903.94
2022-10-10T09:58:22.730Z,98901.31
2022-10-10T10:00:49.876Z,98911.72
2022-10-10T10:03:19.372Z,98904.31
2022-10-10T10:05:56.481Z,98908.22
2022-10-10T10:08:27.326Z,98910.22
2022-10-10T10:10:54.403Z,98911.91
2022-10-10T10:13:25.613Z,98901.59
2022-10-10T10:16:01.803Z,98909.84
2022-10-10T10:18:31.716Z,98907.84
2022-10-10T10:21:09.501Z,98904.31
2022-10-10T10:23:42.237Z,98904.47
2022-10-10T10:26:40.952Z,98909.75
2022-10-10T10:29:30.775Z,98906.28
2022-10-10T10:32:34.966Z,98907.16
2022-10-10T10:35:09.974Z,98903.47
2022-10-10T10:41:09.741Z,98909.66
2022-10-10T10:43:51.519Z,98905.34
2022-10-10T10:46:54.629Z,98904.53
2022-10-10T10:49:29.485Z,98903.09
2022-10-10T10:52:14.723Z,98908.50
2022-10-10T10:55:00.809Z,98899.25
2022-10-10T10:58:10.459Z,98898.75
2022-10-10T11:01:23.156Z,98888.81
2022-10-10T11:05:16.432Z,98888.53
2022-10-10T11:07:18.888Z,98887.56
2022-10-10T11:09:55.109Z,98888.09
2022-10-10T11:13:11.398Z,98880.59
2022-10-10T11:16:07.187Z,98874.44
2022-10-10T11:18:49.324Z,98872.00
2022-10-10T11:21:20.745Z,98866.34
2022-10-10T11:23:55.942Z,98860.19
2022-10-10T11:26:28.347Z,98860.56
2022-10-10T11:29:02.879Z,98865.50
2022-10-10T11:31:57.605Z,98859.38
2022-10-10T11:34:38.811Z,98853.69
2022-10-10T11:37:13.589Z,98855.94
2022-10-10T11:40:03.878Z,98853.72
2022-10-10T11:42:38.679Z,98853.59
2022-10-10T11:45:31.376Z,98847.63
2022-10-10T11:48:40.105Z,98839.28
2022-10-10T11:51:17.894Z,98838.06
2022-10-10T11:53:48.041Z,98838.59
2022-10-10T11:56:37.844Z,98835.22
2022-10-10T11:59:24.235Z,98835.78
2022-10-10T12:01:55.569Z,98829.63
2022-10-10T12:04:23.006Z,98823.22
2022-10-10T12:07:13.902Z,98821.03
2022-10-10T12:10:06.434Z,98825.03
2022-10-10T12:12:43.463Z,98828.22
2022-10-10T12:15:17.726Z,98825.53
2022-10-10T12:17:46.877Z,98824.41
2022-10-10T12:20:25.571Z,98827.09
2022-10-10T12:23:23.478Z,98826.59
2022-10-10T12:25:49.928Z,98819.03
2022-10-10T12:28:16.311Z,98813.91
2022-10-10T12:30:58.992Z,98815.13
2022-10-10T12:33:31.338Z,98813.59
2022-10-10T12:36:17.884Z,98816.91
2022-10-10T12:39:02.876Z,98815.78
2022-10-10T12:41:48.347Z,98816.09
2022-10-10T12:44:16.731Z,98813.63
2022-10-10T12:46:43.444Z,98814.16
2022-10-10T12:49:24.730Z,98808.72
2022-10-10T12:52:12.785Z,98807.09
2022-10-10T12:54:44.349Z,98814.47
2022-10-10T12:57:25.907Z,98810.91
2022-10-10T12:59:53.018Z,98810.25
2022-10-10T13:02:25.321Z,98812.53
2022-10-10T13:04:56.107Z,98807.38
2022-10-10T13:07:24.179Z,98810.34
2022-10-10T13:09:53.206Z,98803.03
2022-10-10T13:12:29.570Z,98804.09
2022-10-10T13:14:56.922Z,98802.22
2022-10-10T13:17:51.277Z,98792.94
2022-10-10T13:20:26.510Z,98801.66
2022-10-10T13:22:53.225Z,98798.94
2022-10-10T13:25:19.793Z,98798.66
2022-10-10T13:27:46.411Z,98803.25
2022-10-10T13:30:24.603Z,98800.03
2022-10-10T13:32:53.835Z,98790.50
2022-10-10T13:35:24.229Z,98794.28
2022-10-10T13:37:57.016Z,98786.66
2022-10-10T13:40:25.644Z,98788.00
2022-10-10T13:42:53.256Z,98799.72
2022-10-10T13:45:27.907Z,98793.19
2022-10-10T13:48:02.947Z,98792.34
2022-10-10T13:50:35.886Z,98794.41
2022-10-10T13:53:26.961Z,98793.78
2022-10-10T13:55:59.211Z,98792.09
2022-10-10T13:58:32.812Z,98784.06
2022-10-10T14:01:02.870Z,98785.56
2022-10-10T14:03:31.220Z,98792.19
2022-10-10T14:05:58.530Z,98790.28
2022-10-10T14:08:34.068Z,98779.38
2022-10-10T14:11:06.945Z,98784.81
2022-10-10T14:13:36.559Z,98794.53
2022-10-10T14:16:23.864Z,98797.56
2022-10-10T14:18:50.581Z,98790.25
2022-10-10T14:21:16.933Z,98794.22
2022-10-10T14:23:43.424Z,98798.81
2022-10-10T14:26:14.774Z,98790.63
2022-10-10T14:28:41.400Z,98798.66
2022-10-10T14:31:07.799Z,98794.84
2022-10-10T14:33:34.298Z,98785.91
2022-10-10T14:36:01.356Z,98786.38
2022-10-10T14:38:28.336Z,98786.59
2022-10-10T14:40:55.214Z,98786.94
2022-10-10T14:43:21.716Z,98782.84
2022-10-10T14:45:53.365Z,98781.50
2022-10-10T14:48:23.387Z,98785.53
2022-10-10T14:50:50.434Z,98781.75
2022-10-10T14:53:17.986Z,98781.47
2022-10-10T14:55:44.656Z,98782.31
2022-10-10T14:58:19.814Z,98784.19
2022-10-10T15:00:49.579Z,98784.72
2022-10-10T15:03:16.094Z,98784.94
2022-10-10T15:05:43.307Z,98788.16
2022-10-10T15:08:13.524Z,98786.97
2022-10-10T15:10:40.656Z,98782.28
2022-10-10T15:13:07.033Z,98778.41
2022-10-10T15:15:33.688Z,98788.09
2022-10-10T15:18:01.060Z,98786.66
2022-10-10T15:20:27.962Z,98789.59
2022-10-10T15:22:54.368Z,98789.25
2022-10-10T15:25:20.820Z,98790.56
2022-10-10T15:27:47.165Z,98799.72
2022-10-10T15:30:13.656Z,98805.69
2022-10-10T15:32:45.687Z,98805.38
2022-10-10T15:35:15.650Z,98805.06
2022-10-10T15:37:42.785Z,98803.66
2022-10-10T15:40:10.749Z,98813.41
2022-10-10T15:42:37.616Z,98815.78
2022-10-10T15:45:04.907Z,98818.75
2022-10-10T15:47:32.177Z,98820.59
2022-10-10T15:49:58.566Z,98820.31
2022-10-10T15:52:24.947Z,98830.03
2022-10-10T15:54:54.220Z,98830.28
2022-10-10T15:57:21.139Z,98830.47
2022-10-10T15:59:47.706Z,98834.78
2022-10-10T16:02:14.726Z,98834.41
2022-10-10T16:04:41.787Z,98836.25
2022-10-10T16:07:26.851Z,98839.16
2022-10-10T16:09:57.787Z,98827.94
2022-10-10T16:12:24.483Z,98830.25
2022-10-10T16:14:51.114Z,98833.94
2022-10-10T16:17:22.196Z,98837.31
2022-10-10T16:19:49.597Z,98847.75
2022-10-10T16:22:16.390Z,98838.84
2022-10-10T16:24:44.573Z,98843.47
2022-10-10T16:27:26.996Z,98837.84
2022-10-10T16:29:54.919Z,98843.66
2022-10-10T16:32:21.415Z,98849.81
2022-10-10T16:34:48.076Z,98849.28
2022-10-10T16:37:14.556Z,98852.88
2022-10-10T16:39:40.958Z,98862.34
2022-10-10T16:42:07.428Z,98869.34
2022-10-10T16:44:35.008Z,98875.28
2022-10-10T16:47:01.510Z,98882.03
2022-10-10T16:49:31.460Z,98886.66
2022-10-10T16:51:58.585Z,98884.56
2022-10-10T16:54:25.141Z,98883.50
2022-10-10T16:56:54.604Z,98891.72
2022-10-10T16:59:20.919Z,98894.19
2022-10-10T17:01:47.585Z,98893.72
2022-10-10T17:04:14.091Z,98887.75
2022-10-10T17:06:40.612Z,98893.50
2022-10-10T17:09:11.547Z,98907.31
2022-10-10T17:11:38.150Z,98909.78
2022-10-10T17:14:04.639Z,98905.44
2022-10-10T17:19:20.276Z,98908.19
2022-10-10T17:21:58.159Z,98917.72
2022-10-10T17:24:24.816Z,98924.34
2022-10-10T17:26:51.229Z,98925.13
2022-10-10T17:29:17.626Z,98928.50
2022-10-10T17:31:44.507Z,98924.63
2022-10-10T17:34:11.206Z,98928.81
2022-10-10T17:36:37.660Z,98934.25
2022-10-10T17:39:04.330Z,98928.97
2022-10-10T17:41:30.757Z,98944.13
2022-10-10T17:43:57.387Z,98942.81
2022-10-10T17:46:35.187Z,98950.50
2022-10-10T17:49:07.797Z,98956.94
2022-10-10T17:51:36.100Z,98965.25
2022-10-10T17:54:03.671Z,98969.03
2022-10-10T17:56:30.436Z,98968.22
2022-10-10T17:58:56.878Z,98962.47
2022-10-10T18:01:23.406Z,98961.03
2022-10-10T18:03:49.936Z,98961.47
2022-10-10T18:06:19.120Z,98966.50
2022-10-10T18:08:50.773Z,98967.97
2022-10-10T18:11:23.438Z,98966.56
2022-10-10T18:13:50.567Z,98974.00
2022-10-10T18:16:20.075Z,98972.00
2022-10-10T18:18:50.983Z,98980.72
2022-10-10T18:21:19.899Z,98979.69
2022-10-10T18:23:46.939Z,98984.94
2022-10-10T18:26:22.524Z,98985.13
2022-10-10T18:28:50.018Z,98991.38
2022-10-10T18:31:22.429Z,98993.50
2022-10-10T18:33:49.055Z,98991.44
2022-10-10T18:36:18.917Z,98998.25
2022-10-10T18:38:47.438Z,98993.69
2022-10-10T18:41:19.585Z,99006.69
2022-10-10T18:43:48.106Z,99016.81
2022-10-10T18:46:17.781Z,99019.88
2022-10-10T18:48:47.093Z,99031.91
2022-10-10T18:51:20.969Z,99053.41
2022-10-10T18:53:47.844Z,99090.00
2022-10-10T18:56:17.535Z,99103.44
2022-10-10T18:58:44.023Z,99091.25
2022-10-10T19:01:12.831Z,99077.47
2022-10-10T19:03:41.188Z,99080.41
2022-10-10T19:06:11.020Z,99087.06
2022-10-10T19:08:37.686Z,99076.31
2022-10-10T19:11:06.220Z,99088.53
2022-10-10T19:13:33.800Z,99085.00
2022-10-10T19:16:04.681Z,99076.31
2022-10-10T19:18:31.215Z,99088.91
2022-10-10T19:21:02.497Z,99075.06
2022-10-10T19:23:36.522Z,99067.44
2022-10-10T19:26:11.973Z,99064.97
2022-10-10T19:28:48.729Z,99070.13
2022-10-10T19:31:23.635Z,99076.53
2022-10-10T19:33:57.406Z,99087.97
2022-10-10T19:36:46.584Z,99088.53
2022-10-10T19:39:20.166Z,99087.97
2022-10-10T19:41:56.749Z,99073.97
2022-10-10T19:44:23.316Z,99080.63
2022-10-10T19:46:50.003Z,99060.59
2022-10-10T19:49:16.513Z,99066.59
2022-10-10T19:51:45.943Z,99067.84
2022-10-10T19:54:12.716Z,99081.50
2022-10-10T19:56:39.180Z,99087.69
2022-10-10T19:59:07.127Z,99084.19
2022-10-10T20:01:36.880Z,99097.63
2022-10-10T20:04:18.232Z,99105.25
2022-10-10T20:06:45.244Z,99144.28
2022-10-10T20:09:11.612Z,99176.91
2022-10-10T20:11:39.050Z,99166.38
2022-10-10T20:14:05.737Z,99180.41
2022-10-10T20:16:33.775Z,99174.19
2022-10-10T20:19:01.918Z,99165.31
2022-10-10T20:21:36.964Z,99162.38
2022-10-10T20:24:07.603Z,99174.81
2022-10-10T20:26:34.558Z,99186.56
2022-10-10T20:29:04.274Z,99193.19
2022-10-10T20:31:33.752Z,99206.44
2022-10-10T20:34:04.499Z,99213.84
2022-10-10T20:36:34.664Z,99232.06
2022-10-10T20:39:07.447Z,99226.44
2022-10-10T20:41:35.851Z,99221.50
2022-10-10T20:44:05.186Z,99382.31
2022-10-10T20:46:37.662Z,99678.13
2022-10-10T20:49:08.216Z,99672.31
2022-10-10T20:51:35.988Z,99665.03
2022-10-10T20:54:05.706Z,99658.41
2022-10-10T20:56:34.822Z,99668.75
2022-10-10T20:59:04.260Z,99660.03
2022-10-10T21:01:31.222Z,99682.19
2022-10-10T21:04:03.270Z,99717.75
2022-10-10T21:06:32.618Z,99734.00
2022-10-10T21:09:04.306Z,99745.53
2022-10-10T21:11:30.817Z,99742.59
2022-10-10T21:14:01.742Z,99739.28
2022-10-10T21:16:33.930Z,99733.94
2022-10-10T21:19:02.808Z,99723.22
2022-10-10T21:21:31.665Z,99720.72
2022-10-10T21:23:58.617Z,99729.16
2022-10-10T21:26:27.876Z,99719.06
2022-10-10T21:28:55.808Z,99717.84
2022-10-10T21:31:28.292Z,99710.22
2022-10-10T21:33:55.660Z,99709.41
2022-10-10T21:36:24.194Z,99708.72
2022-10-10T21:38:50.648Z,99703.34
2022-10-10T21:41:19.680Z,99702.94
2022-10-10T21:43:48.136Z,99704.22
2022-10-10T21:46:20.386Z,99708.75
2022-10-10T21:48:46.783Z,99729.41
2022-10-10T21:51:13.367Z,99738.50
2022-10-10T21:53:39.674Z,99735.19
2022-10-10T21:56:08.469Z,99732.72
2022-10-10T21:58:37.118Z,99758.31
2022-10-10T22:01:21.689Z,99798.22
2022-10-10T22:03:50.626Z,99785.38
2022-10-10T22:06:24.020Z,99788.03
2022-10-10T22:08:51.894Z,99790.88
2022-10-10T22:11:21.818Z,99789.88
2022-10-10T22:13:48.759Z,99795.50
2022-10-10T22:16:15.269Z,99791.16
2022-10-10T22:18:42.099Z,99794.00
2022-10-10T22:21:12.694Z,99802.06
2022-10-10T22:23:39.205Z,99790.13
2022-10-10T22:26:11.139Z,99788.25
2022-10-10T22:28:39.725Z,99788.91
2022-10-10T22:31:08.607Z,99785.19
2022-10-10T22:33:35.299Z,99784.34
2022-10-10T22:36:02.065Z,99791.41
2022-10-10T22:38:28.833Z,99795.09
2022-10-10T22:40:55.316Z,99790.56
2022-10-10T22:43:26.108Z,99794.91
2022-10-10T22:45:54.620Z,99787.69
2022-10-10T22:48:21.067Z,99790.38
2022-10-10T22:50:48.389Z,99792.22
2022-10-10T22:53:15.088Z,99790.41
2022-10-10T22:55:42.581Z,99789.16
2022-10-10T22:58:10.569Z,99787.69
2022-10-10T23:00:36.984Z,99785.81
2022-10-10T23:03:03.696Z,99788.13
2022-10-10T23:05:30.033Z,99787.47
2022-10-10T23:07:56.528Z,99786.22
2022-10-10T23:10:22.971Z,99791.41
2022-10-10T23:12:49.336Z,99787.25
2022-10-10T23:15:17.085Z,99788.91
2022-10-10T23:17:43.451Z,99781.06
2022-10-10T23:20:10.167Z,99785.19
2022-10-10T23:22:36.619Z,99782.88
2022-10-10T23:25:03.682Z,99776.28
2022-10-10T23:27:30.146Z,99771.75
2022-10-10T23:30:02.077Z,99779.81
2022-10-10T23:32:28.624Z,99772.13
2022-10-10T23:34:58.384Z,99772.78
2022-10-10T23:37:24.756Z,99773.16
2022-10-10T23:39:51.099Z,99776.47
2022-10-10T23:42:17.470Z,99772.47
2022-10-10T23:44:43.872Z,99772.69
2022-10-10T23:47:10.434Z,99774.06
2022-10-10T23:49:41.507Z,99769.31
2022-10-10T23:52:08.062Z,99772.19
2022-10-10T23:54:34.455Z,99767.22
2022-10-10T23:57:00.846Z,99774.25
2022-10-10T23:59:27.247Z,99772.59
